createdAt,value
2019-02-07T00:03:50.293Z,0.80
2019-02-07T00:08:57.477Z,0.90
2019-02-07T00:14:05.928Z,0.80
2019-02-07T00:19:13.142Z,0.80
2019-02-07T00:24:20.215Z,0.80
2019-02-07T00:29:28.201Z,0.80
2019-02-07T00:34:35.300Z,0.80
2019-02-07T00:39:42.942Z,0.80
2019-02-07T00:44:51.977Z,0.70
2019-02-07T00:49:58.915Z,0.70
2019-02-07T00:55:08.625Z,0.60
2019-02-07T01:00:18.796Z,0.70
2019-02-07T01:05:25.998Z,0.60
2019-02-07T01:10:33.656Z,0.60
2019-02-07T01:15:40.750Z,0.60
2019-02-07T01:20:47.844Z,0.50
2019-02-07T01:25:54.946Z,0.50
2019-02-07T01:31:02.132Z,0.50
2019-02-07T01:36:09.453Z,0.60
2019-02-07T01:41:16.554Z,0.50
2019-02-07T01:46:23.669Z,0.60
2019-02-07T01:51:31.092Z,0.60
2019-02-07T01:56:38.504Z,0.60
2019-02-07T02:01:46.122Z,0.50
2019-02-07T02:06:53.195Z,0.50
2019-02-07T02:12:00.519Z,0.50
2019-02-07T02:17:08.289Z,0.50
2019-02-07T02:22:15.588Z,0.50
2019-02-07T02:27:23.550Z,0.50
2019-02-07T02:32:30.766Z,0.60
2019-02-07T02:37:37.946Z,0.50
2019-02-07T02:42:45.161Z,0.40
2019-02-07T02:47:52.950Z,0.40
2019-02-07T02:53:00.381Z,0.40
2019-02-07T02:58:08.026Z,0.30
2019-02-07T03:03:52.580Z,0.30
2019-02-07T03:09:19.776Z,0.30
2019-02-07T03:14:51.819Z,0.30
2019-02-07T03:20:30.106Z,0.30
2019-02-07T03:25:59.060Z,0.30
2019-02-07T03:31:24.015Z,0.30
2019-02-07T03:36:56.438Z,0.30
2019-02-07T03:42:21.286Z,0.30
2019-02-07T03:47:42.124Z,0.30
2019-02-07T03:52:59.987Z,0.30
2019-02-07T03:58:28.288Z,0.30
2019-02-07T04:04:00.163Z,0.30
2019-02-07T04:09:17.726Z,0.30
2019-02-07T04:14:39.295Z,0.30
2019-02-07T04:20:07.546Z,0.20
2019-02-07T04:25:33.558Z,0.30
2019-02-07T04:30:50.426Z,0.20
2019-02-07T04:36:18.468Z,0.30
2019-02-07T04:41:44.412Z,0.30
2019-02-07T04:47:22.320Z,0.30
2019-02-07T04:53:07.007Z,0.30
2019-02-07T04:58:39.342Z,0.30
2019-02-07T05:04:04.559Z,0.30
2019-02-07T05:09:45.886Z,0.30
2019-02-07T05:15:17.673Z,0.20
2019-02-07T05:20:59.097Z,0.20
2019-02-07T05:26:15.959Z,0.20
2019-02-07T05:31:48.020Z,0.20
2019-02-07T05:37:06.387Z,0.10
2019-02-07T05:42:38.708Z,0.10
2019-02-07T05:48:03.556Z,0.10
2019-02-07T05:53:27.928Z,0.10
2019-02-07T05:58:52.679Z,0.10
2019-02-07T06:04:23.864Z,0.20
2019-02-07T06:09:53.135Z,0.20
2019-02-07T06:15:25.989Z,0.20
2019-02-07T06:20:51.153Z,0.20
2019-02-07T06:26:30.654Z,0.20
2019-02-07T06:31:56.724Z,0.20
2019-02-07T06:37:23.061Z,0.30
2019-02-07T06:42:59.324Z,0.20
2019-02-07T06:48:18.879Z,0.30
2019-02-07T06:53:53.656Z,0.30
2019-02-07T06:59:29.596Z,0.30
2019-02-07T07:05:04.763Z,0.30
2019-02-07T07:10:30.844Z,0.30
2019-02-07T07:16:00.776Z,0.30
2019-02-07T07:21:42.717Z,0.30
2019-02-07T07:27:16.021Z,0.40
2019-02-07T07:32:40.988Z,0.40
2019-02-07T07:38:08.206Z,0.40
2019-02-07T07:43:46.747Z,0.40
2019-02-07T07:49:00.837Z,0.40
2019-02-07T07:54:35.807Z,0.60
2019-02-07T08:00:02.581Z,0.70
2019-02-07T08:05:19.960Z,0.80
2019-02-07T08:10:44.627Z,0.90
2019-02-07T08:16:05.174Z,1.10
2019-02-07T08:21:40.640Z,1.10
2019-02-07T08:27:22.165Z,1.20
2019-02-07T08:32:46.818Z,1.30
2019-02-07T08:38:21.601Z,1.40
2019-02-07T08:43:51.160Z,1.50
2019-02-07T08:49:17.850Z,1.60
2019-02-07T08:54:48.031Z,1.80
2019-02-07T09:00:20.255Z,1.90
2019-02-07T09:06:04.989Z,2.00
2019-02-07T09:11:38.961Z,2.20
2019-02-07T09:17:00.101Z,2.30
2019-02-07T09:22:29.252Z,2.40
2019-02-07T09:27:58.298Z,2.50
2019-02-07T09:33:33.992Z,2.70
2019-02-07T09:38:59.122Z,3.00
2019-02-07T09:44:26.460Z,3.20
2019-02-07T09:50:01.893Z,3.50
2019-02-07T09:55:28.986Z,3.70
2019-02-07T10:00:49.027Z,3.60
2019-02-07T10:06:33.427Z,3.70
2019-02-07T10:11:58.448Z,3.60
2019-02-07T10:17:24.150Z,3.80
2019-02-07T10:22:50.024Z,3.80
2019-02-07T10:28:27.744Z,3.90
2019-02-07T10:34:01.936Z,4.10
2019-02-07T10:39:32.908Z,4.40
2019-02-07T10:44:58.018Z,4.70
2019-02-07T10:50:31.301Z,5.00
2019-02-07T10:55:56.388Z,5.10
2019-02-07T11:01:31.904Z,5.20
2019-02-07T11:07:10.296Z,5.30
2019-02-07T11:12:47.359Z,5.30
2019-02-07T11:18:12.725Z,5.20
2019-02-07T11:23:37.504Z,5.10
2019-02-07T11:29:03.645Z,5.20
2019-02-07T11:34:35.671Z,5.40
2019-02-07T11:40:10.272Z,5.70
2019-02-07T11:45:36.734Z,6.00
2019-02-07T11:51:02.767Z,6.20
2019-02-07T11:56:29.112Z,6.10
2019-02-07T12:01:55.163Z,6.00
2019-02-07T12:07:18.361Z,5.90
2019-02-07T12:12:40.948Z,5.80
2019-02-07T12:18:01.098Z,5.70
2019-02-07T12:23:30.688Z,5.60
2019-02-07T12:28:56.438Z,5.60
2019-02-07T12:34:15.761Z,5.60
2019-02-07T12:39:41.976Z,5.50
2019-02-07T12:45:07.023Z,5.50
2019-02-07T12:50:31.977Z,5.50
2019-02-07T12:56:02.612Z,5.50
2019-02-07T13:01:34.399Z,5.30
2019-02-07T13:07:15.593Z,5.20
2019-02-07T13:12:42.563Z,5.10
2019-02-07T13:18:07.582Z,5.00
2019-02-07T13:23:32.162Z,4.90
2019-02-07T13:29:10.351Z,4.80
2019-02-07T13:34:35.444Z,4.70
2019-02-07T13:40:00.218Z,4.70
2019-02-07T13:45:47.151Z,4.80
2019-02-07T13:51:11.739Z,4.80
2019-02-07T13:56:38.456Z,5.00
2019-02-07T14:02:07.663Z,5.10
2019-02-07T14:07:32.471Z,5.30
2019-02-07T14:13:05.495Z,5.30
2019-02-07T14:18:31.079Z,5.30
2019-02-07T14:23:55.929Z,5.30
2019-02-07T14:29:18.368Z,5.20
2019-02-07T14:34:50.232Z,5.20
2019-02-07T14:40:14.988Z,5.20
2019-02-07T14:45:39.747Z,5.50
2019-02-07T14:50:47.100Z,5.50
2019-02-07T14:55:54.208Z,5.20
2019-02-07T15:01:02.271Z,5.00
2019-02-07T15:06:09.555Z,4.70
2019-02-07T15:11:16.768Z,4.50
2019-02-07T15:16:24.291Z,4.20
2019-02-07T15:21:31.727Z,3.90
2019-02-07T15:26:39.075Z,3.70
2019-02-07T15:31:46.565Z,3.50
2019-02-07T15:36:54.710Z,3.30
2019-02-07T15:42:02.929Z,3.20
2019-02-07T15:47:10.824Z,3.00
2019-02-07T15:52:18.273Z,2.90
2019-02-07T15:57:26.454Z,2.80
2019-02-07T16:02:44.308Z,2.60
2019-02-07T16:07:51.407Z,2.50
2019-02-07T16:12:58.540Z,2.50
2019-02-07T16:18:06.169Z,2.30
2019-02-07T16:23:13.312Z,2.30
2019-02-07T16:28:20.796Z,2.30
2019-02-07T16:33:28.980Z,2.20
2019-02-07T16:38:36.309Z,2.20
2019-02-07T16:43:44.249Z,2.10
2019-02-07T16:48:51.364Z,2.10
2019-02-07T16:53:58.965Z,2.00
2019-02-07T16:59:06.322Z,1.80
2019-02-07T17:04:13.678Z,1.90
2019-02-07T17:09:31.025Z,1.80
2019-02-07T17:14:38.335Z,1.70
2019-02-07T17:19:46.147Z,1.60
2019-02-07T17:24:53.229Z,1.60
2019-02-07T17:30:00.618Z,1.50
2019-02-07T17:35:07.968Z,1.50
2019-02-07T17:40:17.487Z,1.40
2019-02-07T17:45:25.952Z,1.40
2019-02-07T17:50:33.771Z,1.40
2019-02-07T17:55:41.385Z,1.50
2019-02-07T18:01:00.833Z,1.40
2019-02-07T18:06:11.395Z,1.40
2019-02-07T18:11:18.608Z,1.30
2019-02-07T18:16:25.732Z,1.20
2019-02-07T18:21:34.519Z,1.10
2019-02-07T18:26:41.780Z,1.00
2019-02-07T18:31:49.144Z,0.90
2019-02-07T18:36:56.286Z,0.90
2019-02-07T18:42:03.515Z,0.90
2019-02-07T18:47:10.738Z,0.90
2019-02-07T18:52:17.923Z,0.90
2019-02-07T18:57:25.437Z,0.90
2019-02-07T19:02:33.028Z,1.00
2019-02-07T19:07:40.219Z,1.00
2019-02-07T19:12:47.559Z,1.00
2019-02-07T19:17:55.326Z,1.00
2019-02-07T19:23:02.704Z,1.00
2019-02-07T19:28:10.103Z,1.10
2019-02-07T19:33:17.401Z,1.00
2019-02-07T19:38:24.725Z,1.00
2019-02-07T19:43:31.945Z,1.00
2019-02-07T19:48:39.335Z,0.90
2019-02-07T19:53:46.663Z,0.90
2019-02-07T19:58:53.996Z,0.80
2019-02-07T20:04:01.392Z,0.70
2019-02-07T20:09:13.159Z,0.80
2019-02-07T20:14:21.152Z,0.70
2019-02-07T20:19:28.383Z,0.70
2019-02-07T20:24:46.119Z,0.70
2019-02-07T20:29:51.287Z,0.80
2019-02-07T20:34:58.939Z,0.90
2019-02-07T20:40:08.316Z,1.00
2019-02-07T20:45:15.837Z,1.10
2019-02-07T20:50:25.224Z,1.20
2019-02-07T20:55:32.713Z,1.20
2019-02-07T21:00:40.401Z,1.20
2019-02-07T21:05:47.650Z,1.30
2019-02-07T21:10:54.945Z,1.40
2019-02-07T21:16:03.789Z,1.30
2019-02-07T21:21:10.933Z,1.30
2019-02-07T21:26:18.547Z,1.30
2019-02-07T21:31:27.496Z,1.40
2019-02-07T21:36:34.892Z,1.50
2019-02-07T21:41:42.204Z,1.60
2019-02-07T21:46:49.656Z,1.50
2019-02-07T21:51:56.896Z,1.60
2019-02-07T21:57:04.211Z,1.50
2019-02-07T22:02:12.195Z,1.40
2019-02-07T22:07:19.690Z,1.50
2019-02-07T22:12:27.178Z,1.40
2019-02-07T22:17:34.470Z,1.40
2019-02-07T22:22:48.998Z,1.40
2019-02-07T22:27:51.118Z,1.40
2019-02-07T22:32:58.672Z,1.30
2019-02-07T22:38:07.784Z,1.30
2019-02-07T22:43:14.969Z,1.30
2019-02-07T22:48:22.185Z,1.30
2019-02-07T22:53:29.293Z,1.30
2019-02-07T22:58:36.475Z,1.30
2019-02-07T23:03:51.855Z,1.30
2019-02-07T23:09:00.548Z,1.30
2019-02-07T23:14:09.494Z,1.30
2019-02-07T23:19:16.802Z,1.30
2019-02-07T23:24:23.920Z,1.30
2019-02-07T23:29:31.332Z,1.40
2019-02-07T23:34:38.547Z,1.40
2019-02-07T23:39:46.643Z,1.30
2019-02-07T23:44:53.848Z,1.20
2019-02-07T23:50:00.976Z,1.20
2019-02-07T23:55:09.422Z,1.10
